KPBI/PBI METAR and TAF weather

Enter ICAO airport designator
Station Type Date Time Source
KPBI METAR 2020/06/06 00:53 UTC NOAA

KPBI 060053Z 05006KT 10SM SCT025 BKN085 BKN180 23/22 A3004 RMK AO2 SLP171 T02330222


Station Type Date Time Source
KPBI Decoded METAR 2020/06/06 00:53 UTC NOAA

PALM BEACH INTERNATIONAL, FL, United States (KPBI) 26-41N 80-06W 6M
Jun 05, 2020 - 08:53 PM EDT / 2020.06.06 0053 UTC
Wind: from the NE (050 degrees) at 7 MPH (6 KT):0
Visibility: 10 mile(s):0
Sky conditions: mostly cloudy
Temperature: 73.9 F (23.3 C)
Dew Point: 72.0 F (22.2 C)
Relative Humidity: 93%
Pressure (altimeter): 30.04 in. Hg (1017 hPa)
ob: KPBI 060053Z 05006KT 10SM SCT025 BKN085 BKN180 23/22 A3004 RMK AO2 SLP171 T02330222
cycle: 1

Station Type Date Time Source
KPBI TAF 2020/06/05 21:09 UTC NOAA

TAF
AMD KPBI 052101Z 0521/0618 14015KT P6SM SHRA VCTS BKN018CB BKN025 BKN250
FM060200 11005KT P6SM VCSH FEW025 SCT050 BKN120
FM060600 10005KT P6SM FEW025 SCT120 BKN250
FM061300 14015KT P6SM SCT020 BKN045

Example: see airport list